createdAt,value
2018-03-07T00:01:32.769Z,37.80
2018-03-07T00:04:00.269Z,38.50
2018-03-07T00:06:27.753Z,37.63
2018-03-07T00:08:55.213Z,38.20
2018-03-07T00:11:22.671Z,37.57
2018-03-07T00:13:50.171Z,37.57
2018-03-07T00:16:17.599Z,39.07
2018-03-07T00:18:45.101Z,37.87
2018-03-07T00:21:12.555Z,38.27
2018-03-07T00:23:40.130Z,37.83
2018-03-07T00:26:07.601Z,36.60
2018-03-07T00:28:35.023Z,36.60
2018-03-07T00:31:02.540Z,36.77
2018-03-07T00:33:30.037Z,36.57
2018-03-07T00:35:57.543Z,35.87
2018-03-07T00:38:25.062Z,33.63
2018-03-07T00:40:52.549Z,37.03
2018-03-07T00:43:20.011Z,34.80
2018-03-07T00:45:47.465Z,36.50
2018-03-07T00:48:14.989Z,35.87
2018-03-07T00:50:42.447Z,35.00
2018-03-07T00:53:09.957Z,32.77
2018-03-07T00:55:37.402Z,37.23
2018-03-07T00:58:04.947Z,35.00
2018-03-07T01:00:32.453Z,35.93
2018-03-07T01:02:59.900Z,35.27
2018-03-07T01:05:27.369Z,36.07
2018-03-07T01:07:54.825Z,34.13
2018-03-07T01:10:22.337Z,36.00
2018-03-07T01:12:49.817Z,35.00
2018-03-07T01:15:17.271Z,35.03
2018-03-07T01:17:44.750Z,34.30
2018-03-07T01:20:12.203Z,33.07
2018-03-07T01:22:39.644Z,35.90
2018-03-07T01:25:07.116Z,33.70
2018-03-07T01:27:34.610Z,33.77
2018-03-07T01:30:02.055Z,35.70
2018-03-07T01:32:29.553Z,34.17
2018-03-07T01:34:57.052Z,34.50
2018-03-07T01:37:25.227Z,33.10
2018-03-07T01:39:54.999Z,35.20
2018-03-07T01:42:22.490Z,34.40
2018-03-07T01:44:49.949Z,32.97
2018-03-07T01:47:17.400Z,32.43
2018-03-07T01:49:44.935Z,34.57
2018-03-07T01:52:12.392Z,33.43
2018-03-07T01:54:39.903Z,34.00
2018-03-07T01:57:07.362Z,34.40
2018-03-07T01:59:34.846Z,34.57
2018-03-07T02:02:02.301Z,32.90
2018-03-07T02:04:29.812Z,33.13
2018-03-07T02:06:57.302Z,32.47
2018-03-07T02:09:24.763Z,33.80
2018-03-07T02:11:52.230Z,32.83
2018-03-07T02:14:19.810Z,31.10
2018-03-07T02:16:47.278Z,33.53
2018-03-07T02:19:14.760Z,31.97
2018-03-07T02:21:42.245Z,32.43
2018-03-07T02:24:09.720Z,31.30
2018-03-07T02:26:37.162Z,35.00
2018-03-07T02:29:04.694Z,34.17
2018-03-07T02:31:32.137Z,34.17
2018-03-07T02:33:59.700Z,33.60
2018-03-07T02:36:33.491Z,33.83
2018-03-07T02:39:01.023Z,33.60
2018-03-07T02:41:28.507Z,32.47
2018-03-07T02:43:55.969Z,34.17
2018-03-07T02:46:23.444Z,33.07
2018-03-07T02:48:50.891Z,32.47
2018-03-07T02:51:18.367Z,31.83
2018-03-07T02:53:45.813Z,31.60
2018-03-07T02:56:13.260Z,32.60
2018-03-07T02:58:40.774Z,30.97
2018-03-07T03:01:08.232Z,32.83
2018-03-07T03:03:35.755Z,33.53
2018-03-07T03:06:02.730Z,34.13
2018-03-07T03:08:30.300Z,34.13
2018-03-07T03:10:57.758Z,32.60
2018-03-07T03:13:26.344Z,34.37
2018-03-07T03:15:53.779Z,33.70
2018-03-07T03:18:21.236Z,31.97
2018-03-07T03:20:48.692Z,32.97
2018-03-07T03:23:16.150Z,34.10
2018-03-07T03:25:43.609Z,32.97
2018-03-07T03:28:11.654Z,35.03
2018-03-07T03:30:39.105Z,33.50
2018-03-07T03:33:06.570Z,35.27
2018-03-07T03:35:34.044Z,33.07
2018-03-07T03:38:01.490Z,35.83
2018-03-07T03:40:29.208Z,32.33
2018-03-07T03:42:56.667Z,32.77
2018-03-07T03:45:24.119Z,33.77
2018-03-07T03:47:51.601Z,33.13
2018-03-07T03:50:19.050Z,33.50
2018-03-07T03:52:46.544Z,32.43
2018-03-07T03:55:14.087Z,32.27
2018-03-07T03:57:46.503Z,31.83
2018-03-07T04:00:13.944Z,31.27
2018-03-07T04:02:41.437Z,33.30
2018-03-07T04:05:08.909Z,32.77
2018-03-07T04:07:36.373Z,34.63
2018-03-07T04:10:03.841Z,33.03
2018-03-07T04:12:31.313Z,33.97
2018-03-07T04:14:58.775Z,34.63
2018-03-07T04:17:26.239Z,34.97
2018-03-07T04:19:53.768Z,33.13
2018-03-07T04:22:22.122Z,35.47
2018-03-07T04:24:49.587Z,35.77
2018-03-07T04:27:17.097Z,34.77
2018-03-07T04:29:44.606Z,34.97
2018-03-07T04:32:12.111Z,35.13
2018-03-07T04:34:39.638Z,35.77
2018-03-07T04:37:07.096Z,34.77
2018-03-07T04:39:34.552Z,35.83
2018-03-07T04:42:02.048Z,34.83
2018-03-07T04:44:29.479Z,33.20
2018-03-07T04:46:56.968Z,34.57
2018-03-07T04:49:24.445Z,34.50
2018-03-07T04:51:51.909Z,33.57
2018-03-07T04:54:19.376Z,33.83
2018-03-07T04:56:46.845Z,33.53
2018-03-07T04:59:14.291Z,33.53
2018-03-07T05:01:41.749Z,33.83
2018-03-07T05:04:09.211Z,33.40
2018-03-07T05:06:36.666Z,34.23
2018-03-07T05:09:04.158Z,33.23
2018-03-07T05:11:31.630Z,34.53
2018-03-07T05:13:59.083Z,33.20
2018-03-07T05:16:26.599Z,33.77
2018-03-07T05:18:54.089Z,34.43
2018-03-07T05:21:21.628Z,34.53
2018-03-07T05:23:49.147Z,34.80
2018-03-07T05:26:16.654Z,35.07
2018-03-07T05:28:44.115Z,35.63
2018-03-07T05:31:11.619Z,36.67
2018-03-07T05:33:39.118Z,36.93
2018-03-07T05:36:06.705Z,35.93
2018-03-07T05:38:34.171Z,37.03
2018-03-07T05:41:01.971Z,37.13
2018-03-07T05:43:30.402Z,38.43
2018-03-07T05:45:57.924Z,38.73
2018-03-07T05:48:25.382Z,39.60
2018-03-07T05:50:52.839Z,38.50
2018-03-07T05:53:20.331Z,40.73
2018-03-07T05:55:47.801Z,40.73
2018-03-07T05:58:15.252Z,38.30
2018-03-07T06:00:42.757Z,39.43
2018-03-07T06:03:10.537Z,40.10
2018-03-07T06:05:38.003Z,38.93
2018-03-07T06:08:06.223Z,40.10
2018-03-07T06:10:33.729Z,40.47
2018-03-07T06:13:01.313Z,38.03
2018-03-07T06:15:28.751Z,37.63
2018-03-07T06:17:56.284Z,39.20
2018-03-07T06:20:23.785Z,38.83
2018-03-07T06:22:51.221Z,40.13
2018-03-07T06:25:18.675Z,38.63
2018-03-07T06:27:46.185Z,39.63
2018-03-07T06:30:13.695Z,40.27
2018-03-07T06:32:41.173Z,37.73
2018-03-07T06:35:08.756Z,36.83
2018-03-07T06:37:36.280Z,38.53
2018-03-07T06:40:03.751Z,34.87
2018-03-07T06:42:31.243Z,34.17
2018-03-07T06:44:58.751Z,35.87
2018-03-07T06:47:26.261Z,34.37
2018-03-07T06:49:54.702Z,34.57
2018-03-07T06:52:22.237Z,33.07
2018-03-07T06:54:49.811Z,34.20
2018-03-07T06:57:17.281Z,34.13
2018-03-07T06:59:44.781Z,34.47
2018-03-07T07:02:12.257Z,35.40
2018-03-07T07:04:39.750Z,34.83
2018-03-07T07:07:07.213Z,36.07
2018-03-07T07:09:34.698Z,36.47
2018-03-07T07:12:02.217Z,36.37
2018-03-07T07:14:29.709Z,36.57
2018-03-07T07:16:57.232Z,35.53
2018-03-07T07:19:24.697Z,37.43
2018-03-07T07:21:52.177Z,37.50
2018-03-07T07:24:19.615Z,35.93
2018-03-07T07:26:47.361Z,36.90
2018-03-07T07:29:14.821Z,37.50
2018-03-07T07:31:42.435Z,36.53
2018-03-07T07:34:09.942Z,36.53
2018-03-07T07:36:37.433Z,36.20
2018-03-07T07:39:04.897Z,36.80
2018-03-07T07:41:32.353Z,36.07
2018-03-07T07:43:59.906Z,35.70
2018-03-07T07:46:27.378Z,37.50
2018-03-07T07:48:54.820Z,37.37
2018-03-07T07:51:22.305Z,39.03
2018-03-07T07:53:49.749Z,37.47
2018-03-07T07:56:17.240Z,36.27
2018-03-07T07:58:44.719Z,37.80
2018-03-07T08:01:12.176Z,37.57
2018-03-07T08:03:39.714Z,38.33
2018-03-07T08:06:07.189Z,39.57
2018-03-07T08:08:34.651Z,39.70
2018-03-07T08:11:02.111Z,40.73
2018-03-07T08:13:29.586Z,41.07
2018-03-07T08:15:57.048Z,43.20
2018-03-07T08:18:24.502Z,40.17
2018-03-07T08:20:52.011Z,42.30
2018-03-07T08:23:19.485Z,42.33
2018-03-07T08:25:47.638Z,41.27
2018-03-07T08:28:15.133Z,41.97
2018-03-07T08:30:42.607Z,39.17
2018-03-07T08:33:10.045Z,39.20
2018-03-07T08:35:37.490Z,39.13
2018-03-07T08:38:05.142Z,38.80
2018-03-07T08:40:33.297Z,37.70
2018-03-07T08:43:00.750Z,38.80
2018-03-07T08:45:28.255Z,36.33
2018-03-07T08:47:55.767Z,36.77
2018-03-07T08:50:23.213Z,38.57
2018-03-07T08:52:50.683Z,38.70
2018-03-07T08:55:18.148Z,38.17
2018-03-07T08:57:45.659Z,36.87
2018-03-07T09:00:13.163Z,37.30
2018-03-07T09:02:40.757Z,40.63
2018-03-07T09:05:08.238Z,40.07
2018-03-07T09:07:35.692Z,39.50
2018-03-07T09:10:03.162Z,40.80
2018-03-07T09:12:30.609Z,41.17
2018-03-07T09:14:58.875Z,40.57
2018-03-07T09:17:27.208Z,42.67
2018-03-07T09:19:54.695Z,43.20
2018-03-07T09:22:22.219Z,43.57
2018-03-07T09:24:49.719Z,43.20
2018-03-07T09:27:17.198Z,42.40
2018-03-07T09:29:44.684Z,46.80
2018-03-07T09:32:12.158Z,44.23
2018-03-07T09:34:39.653Z,44.90
2018-03-07T09:37:07.153Z,46.43
2018-03-07T09:39:34.631Z,47.67
2018-03-07T09:42:02.117Z,46.53
2018-03-07T09:44:29.589Z,46.97
2018-03-07T09:46:57.167Z,48.90
2018-03-07T09:49:24.635Z,49.30
2018-03-07T09:51:52.163Z,51.93
2018-03-07T09:54:19.623Z,54.30
2018-03-07T09:56:47.090Z,52.97
2018-03-07T09:59:14.555Z,51.57
2018-03-07T10:01:42.023Z,53.93
2018-03-07T10:04:09.787Z,54.40
2018-03-07T10:06:37.330Z,53.20
2018-03-07T10:09:04.775Z,55.83
2018-03-07T10:11:32.231Z,55.37
2018-03-07T10:13:59.733Z,54.60
2018-03-07T10:16:27.273Z,54.10
2018-03-07T10:18:54.709Z,54.67
2018-03-07T10:21:22.214Z,56.40
2018-03-07T10:23:49.671Z,53.80
2018-03-07T10:26:17.134Z,55.90
2018-03-07T10:28:44.628Z,57.50
2018-03-07T10:31:12.143Z,58.43
2018-03-07T10:33:39.673Z,55.97
2018-03-07T10:36:07.171Z,56.90
2018-03-07T10:38:34.633Z,57.97
2018-03-07T10:41:02.155Z,56.67
2018-03-07T10:43:29.645Z,58.17
2018-03-07T10:45:57.100Z,58.87
2018-03-07T10:48:24.680Z,57.00
2018-03-07T10:50:52.144Z,57.20
2018-03-07T10:53:19.663Z,59.63
2018-03-07T10:55:47.182Z,60.63
2018-03-07T10:58:14.634Z,59.43
2018-03-07T11:00:42.189Z,60.73
2018-03-07T11:03:09.700Z,57.97
2018-03-07T11:05:37.209Z,58.23
2018-03-07T11:08:04.683Z,58.87
2018-03-07T11:10:32.195Z,61.93
2018-03-07T11:12:59.630Z,58.57
2018-03-07T11:15:27.075Z,59.93
2018-03-07T11:17:59.627Z,60.57
2018-03-07T11:20:27.194Z,61.10
2018-03-07T11:22:54.688Z,61.17
2018-03-07T11:25:22.244Z,61.77
2018-03-07T11:27:49.754Z,60.73
2018-03-07T11:30:17.258Z,62.30
2018-03-07T11:32:44.766Z,63.10
2018-03-07T11:35:12.269Z,65.23
2018-03-07T11:37:40.530Z,63.63
2018-03-07T11:40:08.069Z,62.30
2018-03-07T11:42:35.566Z,65.13
2018-03-07T11:45:03.093Z,63.07
2018-03-07T11:47:30.577Z,62.40
2018-03-07T11:49:58.205Z,64.87
2018-03-07T11:52:25.696Z,63.13
2018-03-07T11:54:53.258Z,62.67
2018-03-07T11:57:20.697Z,62.33
2018-03-07T11:59:48.166Z,62.97
2018-03-07T12:02:15.619Z,62.23
2018-03-07T12:04:43.127Z,63.73
2018-03-07T12:07:10.683Z,61.93
2018-03-07T12:09:38.172Z,64.20
2018-03-07T12:12:05.634Z,63.00
2018-03-07T12:14:33.110Z,62.97
2018-03-07T12:17:01.153Z,64.97
2018-03-07T12:19:33.671Z,64.20
2018-03-07T12:22:01.176Z,66.33
2018-03-07T12:24:28.726Z,61.73
2018-03-07T12:26:56.190Z,63.93
2018-03-07T12:29:23.661Z,64.13
2018-03-07T12:31:51.112Z,63.87
2018-03-07T12:34:18.607Z,66.37
2018-03-07T12:36:46.051Z,66.57
2018-03-07T12:39:13.525Z,66.77
2018-03-07T12:41:41.004Z,67.17
2018-03-07T12:44:08.440Z,64.60
2018-03-07T12:46:35.973Z,68.37
2018-03-07T12:49:03.429Z,65.93
2018-03-07T12:51:30.961Z,69.07
2018-03-07T12:53:58.452Z,69.50
2018-03-07T12:56:25.947Z,69.07
2018-03-07T12:58:53.449Z,64.63
2018-03-07T13:01:20.916Z,66.53
2018-03-07T13:03:48.390Z,67.67
2018-03-07T13:06:15.883Z,70.33
2018-03-07T13:08:43.356Z,70.43
2018-03-07T13:11:10.814Z,70.33
2018-03-07T13:13:38.247Z,69.70
2018-03-07T13:16:05.770Z,69.70
2018-03-07T13:18:33.224Z,71.00
2018-03-07T13:21:00.682Z,68.53
2018-03-07T13:23:28.138Z,70.83
2018-03-07T13:25:57.766Z,74.03
2018-03-07T13:28:25.248Z,70.20
2018-03-07T13:30:52.712Z,69.63
2018-03-07T13:33:20.199Z,73.00
2018-03-07T13:35:47.684Z,69.50
2018-03-07T13:38:15.174Z,68.77
2018-03-07T13:40:42.628Z,68.63
2018-03-07T13:43:10.066Z,65.10
2018-03-07T13:45:37.705Z,64.43
2018-03-07T13:48:05.182Z,66.37
2018-03-07T13:50:32.638Z,66.33
2018-03-07T13:53:00.128Z,66.33
2018-03-07T13:55:27.632Z,65.57
2018-03-07T13:57:55.164Z,67.30
2018-03-07T14:00:22.664Z,69.43
2018-03-07T14:02:50.136Z,64.90
2018-03-07T14:05:17.624Z,67.93
2018-03-07T14:07:45.130Z,71.80
2018-03-07T14:10:12.660Z,70.87
2018-03-07T14:12:40.139Z,71.50
2018-03-07T14:15:07.602Z,70.00
2018-03-07T14:17:35.042Z,68.00
2018-03-07T14:20:02.514Z,69.13
2018-03-07T14:22:29.974Z,68.73
2018-03-07T14:24:57.470Z,70.77
2018-03-07T14:27:24.932Z,68.80
2018-03-07T14:29:53.359Z,69.03
2018-03-07T14:32:20.836Z,69.13
2018-03-07T14:34:48.300Z,70.53
2018-03-07T14:37:15.806Z,68.27
2018-03-07T14:39:43.321Z,68.23
2018-03-07T14:42:10.775Z,68.70
2018-03-07T14:44:38.254Z,70.07
2018-03-07T14:47:05.733Z,70.07
2018-03-07T14:49:33.284Z,73.63
2018-03-07T14:52:00.766Z,71.00
2018-03-07T14:54:28.216Z,68.00
2018-03-07T14:56:55.702Z,70.87
2018-03-07T14:59:23.169Z,69.23
2018-03-07T15:01:50.653Z,70.73
2018-03-07T15:04:18.128Z,72.63
2018-03-07T15:06:45.604Z,74.17
2018-03-07T15:09:14.200Z,75.37
2018-03-07T15:11:41.653Z,76.10
2018-03-07T15:16:51.026Z,73.80
2018-03-07T15:19:18.537Z,72.80
2018-03-07T15:21:45.987Z,71.80
2018-03-07T15:24:13.535Z,78.60
2018-03-07T15:26:40.990Z,70.47
2018-03-07T15:29:08.462Z,72.30
2018-03-07T15:31:36.181Z,69.67
2018-03-07T15:34:03.658Z,71.90
2018-03-07T15:36:31.311Z,74.10
2018-03-07T15:38:58.757Z,72.73
2018-03-07T15:41:27.766Z,74.60
2018-03-07T15:43:55.286Z,72.37
2018-03-07T15:46:22.758Z,70.70
2018-03-07T15:48:50.217Z,68.97
2018-03-07T15:51:17.722Z,70.27
2018-03-07T15:53:45.227Z,72.60
2018-03-07T15:56:12.739Z,70.67
2018-03-07T15:58:40.244Z,70.97
2018-03-07T16:01:07.749Z,71.20
2018-03-07T16:03:35.205Z,70.20
2018-03-07T16:06:02.642Z,72.63
2018-03-07T16:08:30.119Z,71.27
2018-03-07T16:10:58.379Z,68.47
2018-03-07T16:13:25.837Z,72.00
2018-03-07T16:15:53.314Z,73.40
2018-03-07T16:18:20.756Z,73.80
2018-03-07T16:20:48.523Z,72.83
2018-03-07T16:23:16.021Z,72.50
2018-03-07T16:25:43.522Z,74.70
2018-03-07T16:28:11.033Z,75.13
2018-03-07T16:30:38.510Z,74.83
2018-03-07T16:33:05.997Z,75.40
2018-03-07T16:35:33.481Z,87.27
2018-03-07T16:38:01.001Z,78.57
2018-03-07T16:40:28.457Z,73.60
2018-03-07T16:42:55.971Z,74.17
2018-03-07T16:45:23.453Z,71.97
2018-03-07T16:47:51.066Z,72.07
2018-03-07T16:50:18.509Z,71.27
2018-03-07T16:52:45.972Z,69.97
2018-03-07T16:55:13.522Z,70.90
2018-03-07T16:57:41.005Z,65.50
2018-03-07T17:00:08.639Z,67.13
2018-03-07T17:02:36.126Z,67.07
2018-03-07T17:05:04.466Z,69.30
2018-03-07T17:07:31.957Z,70.50
2018-03-07T17:09:59.571Z,61.70
2018-03-07T17:12:27.067Z,59.83
2018-03-07T17:14:54.584Z,57.77
2018-03-07T17:17:22.097Z,54.77
2018-03-07T17:19:49.572Z,55.20
2018-03-07T17:22:17.054Z,53.37
2018-03-07T17:24:44.524Z,56.73
2018-03-07T17:27:11.965Z,56.20
2018-03-07T17:29:39.473Z,54.60
2018-03-07T17:32:06.957Z,50.20
2018-03-07T17:34:34.401Z,51.03
2018-03-07T17:37:01.894Z,52.73
2018-03-07T17:39:29.421Z,44.80
2018-03-07T17:41:56.999Z,44.43
2018-03-07T17:44:24.448Z,45.57
2018-03-07T17:46:51.897Z,38.53
2018-03-07T17:49:19.399Z,38.47
2018-03-07T17:51:46.851Z,35.90
2018-03-07T17:54:14.315Z,34.47
2018-03-07T17:56:41.779Z,33.83
2018-03-07T17:59:09.277Z,33.33
2018-03-07T18:01:36.806Z,36.53
2018-03-07T18:04:04.278Z,33.47
2018-03-07T18:06:31.777Z,28.90
2018-03-07T18:08:59.240Z,24.23
2018-03-07T18:11:26.762Z,23.80
2018-03-07T18:13:54.215Z,22.73
2018-03-07T18:16:21.682Z,22.43
2018-03-07T18:18:49.153Z,20.97
2018-03-07T18:21:16.649Z,19.83
2018-03-07T18:23:44.239Z,18.87
2018-03-07T18:26:11.692Z,17.03
2018-03-07T18:28:39.141Z,16.33
2018-03-07T18:31:06.631Z,15.90
2018-03-07T18:33:34.093Z,15.23
2018-03-07T18:36:01.573Z,14.87
2018-03-07T18:38:29.061Z,14.97
2018-03-07T18:40:56.615Z,13.53
2018-03-07T18:43:24.091Z,14.87
2018-03-07T18:45:51.634Z,13.93
2018-03-07T18:48:19.165Z,13.97
2018-03-07T18:50:46.623Z,14.40
2018-03-07T18:53:14.065Z,14.13
2018-03-07T18:55:41.543Z,15.00
2018-03-07T18:58:10.391Z,13.67
2018-03-07T19:00:37.903Z,13.60
2018-03-07T19:03:05.357Z,12.53
2018-03-07T19:05:33.736Z,13.90
2018-03-07T19:08:01.185Z,13.27
2018-03-07T19:10:28.653Z,13.37
2018-03-07T19:12:56.107Z,11.83
2018-03-07T19:15:23.562Z,12.50
2018-03-07T19:17:51.046Z,12.20
2018-03-07T19:20:20.383Z,11.83
2018-03-07T19:22:47.837Z,12.07
2018-03-07T19:25:15.331Z,11.40
2018-03-07T19:27:42.795Z,12.23
2018-03-07T19:30:10.267Z,12.00
2018-03-07T19:32:37.721Z,12.10
2018-03-07T19:35:05.176Z,11.80
2018-03-07T19:37:33.003Z,11.20
2018-03-07T19:40:00.471Z,11.00
2018-03-07T19:42:27.912Z,12.37
2018-03-07T19:44:55.380Z,12.20
2018-03-07T19:47:22.837Z,12.40
2018-03-07T19:49:50.318Z,10.77
2018-03-07T19:52:17.781Z,12.13
2018-03-07T19:54:45.260Z,10.90
2018-03-07T19:57:12.747Z,11.20
2018-03-07T19:59:40.213Z,9.93
2018-03-07T20:02:07.948Z,10.60
2018-03-07T20:04:35.451Z,9.33
2018-03-07T20:07:02.931Z,10.53
2018-03-07T20:09:30.409Z,9.63
2018-03-07T20:11:57.860Z,10.20
2018-03-07T20:14:25.335Z,9.67
2018-03-07T20:16:52.803Z,10.10
2018-03-07T20:19:20.262Z,10.60
2018-03-07T20:21:47.741Z,10.37
2018-03-07T20:24:15.219Z,10.33
2018-03-07T20:26:42.774Z,11.80
2018-03-07T20:29:10.262Z,11.60
2018-03-07T20:31:37.743Z,11.40
2018-03-07T20:34:05.242Z,9.67
2018-03-07T20:36:32.737Z,9.00
2018-03-07T20:39:00.253Z,9.30
2018-03-07T20:41:27.712Z,9.27
2018-03-07T20:43:55.164Z,8.63
2018-03-07T20:46:22.629Z,8.60
2018-03-07T20:48:50.057Z,7.83
2018-03-07T20:51:17.573Z,8.33
2018-03-07T20:53:45.042Z,7.70
2018-03-07T20:56:12.602Z,7.73
2018-03-07T20:58:40.101Z,7.90
2018-03-07T21:01:07.566Z,7.57
2018-03-07T21:03:35.012Z,7.70
2018-03-07T21:06:02.474Z,6.70
2018-03-07T21:08:30.023Z,7.20
2018-03-07T21:10:57.508Z,6.70
2018-03-07T21:13:24.996Z,6.67
2018-03-07T21:15:52.476Z,6.80
2018-03-07T21:18:19.969Z,6.07
2018-03-07T21:20:47.405Z,6.10
2018-03-07T21:23:14.877Z,5.87
2018-03-07T21:25:42.359Z,6.00
2018-03-07T21:28:09.833Z,6.47
2018-03-07T21:30:37.292Z,6.43
2018-03-07T21:33:04.746Z,6.63
2018-03-07T21:35:32.218Z,6.73
2018-03-07T21:37:59.700Z,5.97
2018-03-07T21:40:27.138Z,7.03
2018-03-07T21:42:54.596Z,6.60
2018-03-07T21:45:22.725Z,6.33
2018-03-07T21:47:50.872Z,5.17
2018-03-07T21:50:18.961Z,5.50
2018-03-07T21:52:46.390Z,5.93
2018-03-07T21:55:13.840Z,5.57
2018-03-07T21:57:41.448Z,5.50
2018-03-07T22:00:08.928Z,5.70
2018-03-07T22:02:36.922Z,5.27
2018-03-07T22:05:04.511Z,5.23
2018-03-07T22:07:31.980Z,5.50
2018-03-07T22:09:59.435Z,5.77
2018-03-07T22:12:26.862Z,5.73
2018-03-07T22:14:54.466Z,5.63
2018-03-07T22:17:21.936Z,5.00
2018-03-07T22:19:49.392Z,5.00
2018-03-07T22:22:16.829Z,5.57
2018-03-07T22:24:44.310Z,5.53
2018-03-07T22:27:11.774Z,5.83
2018-03-07T22:29:39.218Z,5.10
2018-03-07T22:32:06.701Z,5.90
2018-03-07T22:34:34.139Z,5.10
2018-03-07T22:37:01.569Z,5.50
2018-03-07T22:39:29.035Z,5.83
2018-03-07T22:41:56.530Z,5.57
2018-03-07T22:44:23.958Z,5.90
2018-03-07T22:46:51.453Z,5.30
2018-03-07T22:49:18.876Z,6.10
2018-03-07T22:51:46.379Z,6.00
2018-03-07T22:54:13.840Z,5.43
2018-03-07T22:56:41.344Z,5.87
2018-03-07T22:59:08.792Z,6.10
2018-03-07T23:01:36.219Z,5.63
2018-03-07T23:04:03.710Z,6.03
2018-03-07T23:06:31.148Z,6.07
2018-03-07T23:08:58.599Z,5.83
2018-03-07T23:11:26.079Z,5.97
2018-03-07T23:13:53.522Z,5.53
2018-03-07T23:16:20.965Z,5.70
2018-03-07T23:18:48.470Z,5.90
2018-03-07T23:21:16.110Z,5.73
2018-03-07T23:23:43.560Z,6.37
2018-03-07T23:26:11.014Z,6.37
2018-03-07T23:28:38.477Z,5.20
2018-03-07T23:31:05.975Z,5.70
2018-03-07T23:33:33.440Z,5.60
2018-03-07T23:36:00.876Z,5.53
2018-03-07T23:38:28.349Z,5.40
2018-03-07T23:40:55.788Z,6.23
2018-03-07T23:43:23.236Z,5.67
2018-03-07T23:45:50.661Z,5.67
2018-03-07T23:48:18.144Z,5.63
2018-03-07T23:50:45.636Z,5.90
2018-03-07T23:53:13.068Z,5.33
2018-03-07T23:55:40.553Z,5.30
2018-03-07T23:58:08.017Z,5.13
